Time;durP1;ratioP1;P1;durP2;ratioP2;P2;SDS_P1;SDS_P2;PMS_P1;PMS_P2;Temp;Humidity;BMP_temperature;BMP_pressure;BME280_temperature;BME280_humidity;BME280_pressure;Samples;Min_cycle;Max_cycle;Signal;HPM_P1;HPM_P2
2022/04/16 04:14:02;;;;;;;12.60;11.90;;;7.40;99.90;;;;;;6207451;22;20478;-75
2022/04/16 04:16:29;;;;;;;15.20;14.30;;;7.30;99.90;;;;;;6210611;23;20466;-75
2022/04/16 04:18:56;;;;;;;13.33;12.63;;;7.30;99.90;;;;;;6211401;23;20459;-75
2022/04/16 04:21:22;;;;;;;13.70;12.60;;;7.30;99.90;;;;;;6211128;23;20407;-75
2022/04/16 04:23:49;;;;;;;13.17;12.47;;;7.30;99.90;;;;;;6211909;23;20410;-76
2022/04/16 04:26:16;;;;;;;13.97;13.27;;;7.20;99.90;;;;;;6212196;23;20448;-75
2022/04/16 04:28:42;;;;;;;13.90;13.00;;;7.20;99.90;;;;;;6212088;23;20408;-75
2022/04/16 04:31:10;;;;;;;12.93;12.30;;;7.10;99.90;;;;;;6211999;23;20400;-75
2022/04/16 04:33:37;;;;;;;13.27;12.53;;;7.20;99.90;;;;;;6211646;23;20448;-75
2022/04/16 04:36:04;;;;;;;12.30;11.70;;;7.20;99.90;;;;;;6211208;23;20937;-75
2022/04/16 04:38:31;;;;;;;12.10;11.50;;;7.20;99.90;;;;;;6212255;23;20442;-73
2022/04/16 04:40:58;;;;;;;13.30;12.20;;;7.40;99.90;;;;;;6211971;23;20415;-74
2022/04/16 04:43:25;;;;;;;13.20;12.40;;;7.40;99.90;;;;;;6211843;23;20503;-74
2022/04/16 04:45:52;;;;;;;13.93;13.00;;;7.50;99.90;;;;;;6211727;23;20440;-74
2022/04/16 04:48:20;;;;;;;13.13;12.33;;;7.60;99.90;;;;;;6212708;23;20416;-74
2022/04/16 04:50:46;;;;;;;12.20;11.60;;;7.60;99.90;;;;;;6213627;23;20420;-77
2022/04/16 04:53:13;;;;;;;12.53;11.73;;;7.70;99.90;;;;;;6212195;23;20409;-77
2022/04/16 04:55:40;;;;;;;12.00;11.40;;;7.60;99.90;;;;;;6210876;23;20404;-77
2022/04/16 04:58:06;;;;;;;11.83;11.23;;;7.70;99.90;;;;;;6212136;23;20670;-77
2022/04/16 05:00:33;;;;;;;12.40;11.60;;;7.70;99.90;;;;;;6212649;23;20412;-77
2022/04/16 05:03:00;;;;;;;11.40;10.70;;;7.70;99.90;;;;;;6212757;23;20419;-77
2022/04/16 05:05:28;;;;;;;12.17;11.40;;;7.90;99.90;;;;;;6212163;23;20455;-77
2022/04/16 05:07:54;;;;;;;11.20;10.60;;;8.00;99.90;;;;;;6212389;23;20412;-76
2022/04/16 05:10:22;;;;;;;12.70;12.00;;;7.90;99.90;;;;;;6212548;23;20416;-77
2022/04/16 05:12:48;;;;;;;12.93;12.03;;;8.20;99.90;;;;;;6212087;23;20507;-77
2022/04/16 05:15:15;;;;;;;13.10;12.17;;;8.40;99.90;;;;;;6212803;23;20393;-78
2022/04/16 05:17:42;;;;;;;13.80;12.80;;;8.50;99.90;;;;;;6210410;23;20440;-77
2022/04/16 05:20:09;;;;;;;12.10;11.07;;;8.70;99.90;;;;;;6212851;23;20781;-78
2022/04/16 05:22:37;;;;;;;11.40;10.80;;;8.90;99.90;;;;;;6212436;23;20421;-77
2022/04/16 05:25:05;;;;;;;11.60;10.90;;;8.90;99.90;;;;;;6210752;23;20409;-77
2022/04/16 05:27:34;;;;;;;12.50;11.83;;;9.00;99.90;;;;;;6213206;23;20440;-77
2022/04/16 05:30:12;;;;;;;11.73;10.70;;;9.10;99.90;;;;;;6213402;23;20417;-77
2022/04/16 05:32:42;;;;;;;12.03;10.93;;;9.20;99.90;;;;;;6212982;23;20393;-78
2022/04/16 05:35:12;;;;;;;12.10;11.17;;;9.40;99.90;;;;;;6210690;23;20425;-77
2022/04/16 05:37:40;;;;;;;11.30;10.60;;;9.50;99.90;;;;;;6212787;23;20419;-77
2022/04/16 05:40:08;;;;;;;11.70;11.10;;;9.60;99.90;;;;;;6212557;23;20533;-76
2022/04/16 05:42:40;;;;;;;13.83;11.73;;;9.70;99.90;;;;;;6212808;23;20421;-77
2022/04/16 05:45:08;;;;;;;11.83;11.23;;;9.70;99.90;;;;;;6212580;23;20628;-77
2022/04/16 05:47:35;;;;;;;10.87;10.13;;;9.80;99.90;;;;;;6212349;23;20482;-77
2022/04/16 05:50:02;;;;;;;10.47;9.90;;;10.00;99.90;;;;;;6212506;23;20413;-77
2022/04/16 05:52:29;;;;;;;11.97;11.30;;;10.00;99.90;;;;;;6212888;23;20410;-76
2022/04/16 05:54:57;;;;;;;11.10;10.50;;;10.00;99.90;;;;;;6212471;23;20411;-77
2022/04/16 05:57:25;;;;;;;12.17;11.37;;;10.10;99.90;;;;;;6211845;23;20924;-77
2022/04/16 05:59:52;;;;;;;12.30;11.70;;;10.10;99.90;;;;;;6211924;23;20413;-76
2022/04/16 06:02:19;;;;;;;10.87;10.27;;;10.10;99.90;;;;;;6212576;23;20432;-77
2022/04/16 06:04:46;;;;;;;10.90;10.30;;;10.10;99.90;;;;;;6212980;23;20465;-77
2022/04/16 06:07:13;;;;;;;11.83;11.13;;;10.20;99.90;;;;;;6212894;23;20497;-77
2022/04/16 06:09:40;;;;;;;11.70;11.03;;;10.30;99.90;;;;;;6212614;23;20460;-77
2022/04/16 06:12:09;;;;;;;12.33;11.70;;;10.30;99.90;;;;;;6212355;23;20833;-77
2022/04/16 06:14:36;;;;;;;11.87;11.20;;;10.20;99.90;;;;;;6211989;23;20447;-77
2022/04/16 06:17:02;;;;;;;13.10;12.20;;;10.20;99.90;;;;;;6212637;23;20413;-78
2022/04/16 06:19:29;;;;;;;11.90;11.20;;;10.30;99.90;;;;;;6212732;23;20411;-78
2022/04/16 06:21:56;;;;;;;12.87;12.13;;;10.40;99.90;;;;;;6212385;23;20416;-77
2022/04/16 06:24:22;;;;;;;13.33;11.77;;;10.60;99.90;;;;;;6212373;23;20694;-77
2022/04/16 06:26:49;;;;;;;12.70;12.00;;;10.70;99.90;;;;;;6212391;23;20440;-78
2022/04/16 06:29:17;;;;;;;12.20;11.50;;;10.70;99.90;;;;;;6212665;23;20715;-77
2022/04/16 06:31:44;;;;;;;12.80;12.00;;;10.70;99.90;;;;;;6212652;23;20413;-78
2022/04/16 06:34:10;;;;;;;11.30;10.70;;;10.70;99.90;;;;;;6212078;23;20412;-77
2022/04/16 06:36:38;;;;;;;11.97;11.30;;;10.80;99.90;;;;;;6212336;23;20475;-78
2022/04/16 06:39:05;;;;;;;18.93;11.60;;;10.60;99.90;;;;;;6212223;23;20432;-78
2022/04/16 06:41:32;;;;;;;11.50;10.87;;;10.70;99.90;;;;;;6212128;23;20904;-78
2022/04/16 06:43:58;;;;;;;11.50;10.90;;;10.90;99.90;;;;;;6211970;23;20887;-78
2022/04/16 06:46:26;;;;;;;11.90;11.23;;;10.90;99.90;;;;;;6211981;23;20451;-78
2022/04/16 06:48:53;;;;;;;12.00;11.40;;;10.90;99.90;;;;;;6212088;23;20408;-78
2022/04/16 06:51:20;;;;;;;13.43;12.10;;;11.00;99.90;;;;;;6212110;23;20459;-78
2022/04/16 06:53:46;;;;;;;12.03;11.10;;;11.20;99.90;;;;;;6211947;23;20416;-78
2022/04/16 06:56:13;;;;;;;13.73;12.73;;;11.30;99.90;;;;;;6212131;23;20947;-77
2022/04/16 06:58:39;;;;;;;13.00;12.10;;;11.30;99.90;;;;;;6211742;23;20854;-78
2022/04/16 07:01:06;;;;;;;13.87;12.30;;;11.40;99.90;;;;;;6212153;23;20405;-77
2022/04/16 07:03:34;;;;;;;12.17;11.20;;;11.50;99.90;;;;;;6212122;23;20413;-77
2022/04/16 07:06:01;;;;;;;12.83;11.97;;;11.50;99.90;;;;;;6212238;23;20443;-77
2022/04/16 07:08:28;;;;;;;13.57;12.53;;;11.60;99.90;;;;;;6212215;23;20412;-76
2022/04/16 07:10:54;;;;;;;12.67;11.80;;;11.60;99.90;;;;;;6211474;23;20412;-78
2022/04/16 07:13:21;;;;;;;11.43;10.83;;;11.70;99.90;;;;;;6211527;23;20437;-77
2022/04/16 07:15:48;;;;;;;11.90;11.10;;;11.70;99.90;;;;;;6212011;23;20762;-78
2022/04/16 07:18:15;;;;;;;12.30;11.60;;;11.70;99.90;;;;;;6212259;23;20412;-77
2022/04/16 07:20:43;;;;;;;12.03;11.10;;;11.80;99.90;;;;;;6211890;23;20420;-77
2022/04/16 07:23:10;;;;;;;11.27;10.67;;;11.80;99.90;;;;;;6211908;23;20745;-77
2022/04/16 07:25:36;;;;;;;12.20;11.60;;;11.80;99.90;;;;;;6211986;23;20748;-77
2022/04/16 07:28:03;;;;;;;12.23;11.53;;;11.80;99.90;;;;;;6211684;23;20447;-76
2022/04/16 07:30:30;;;;;;;11.90;11.10;;;11.70;99.90;;;;;;6212047;23;20415;-77
2022/04/16 07:32:57;;;;;;;12.30;11.60;;;11.90;99.90;;;;;;6212338;23;20409;-80
2022/04/16 07:35:26;;;;;;;11.97;11.37;;;11.90;99.90;;;;;;6211892;23;20728;-77
2022/04/16 07:37:57;;;;;;;12.43;11.63;;;11.90;99.90;;;;;;6211944;23;20503;-79
2022/04/16 07:40:25;;;;;;;12.07;11.37;;;11.90;99.90;;;;;;6211846;23;20506;-79
2022/04/16 07:42:52;;;;;;;14.10;13.20;;;11.90;99.90;;;;;;6211217;23;20722;-79
2022/04/16 07:45:21;;;;;;;12.13;11.53;;;11.90;99.90;;;;;;6211217;23;20427;-79
2022/04/16 07:47:48;;;;;;;12.80;11.80;;;12.00;99.90;;;;;;6211630;23;20963;-79
2022/04/16 07:50:16;;;;;;;12.87;11.87;;;12.20;99.90;;;;;;6212088;23;20401;-79
2022/04/16 07:52:43;;;;;;;11.50;10.80;;;12.40;99.90;;;;;;6212068;23;20455;-78
2022/04/16 07:55:11;;;;;;;13.17;12.20;;;12.30;99.90;;;;;;6211462;23;20720;-78
2022/04/16 07:57:38;;;;;;;13.67;12.87;;;12.40;99.90;;;;;;6211669;23;20440;-76
2022/04/16 08:00:06;;;;;;;14.30;13.40;;;12.40;99.90;;;;;;6211742;23;20420;-78
2022/04/16 08:02:32;;;;;;;13.40;12.60;;;12.50;99.90;;;;;;6211819;23;20419;-78
2022/04/16 08:04:59;;;;;;;13.10;12.20;;;12.50;99.90;;;;;;6212048;23;20785;-78
2022/04/16 08:07:26;;;;;;;13.40;12.60;;;12.50;99.90;;;;;;6211274;23;20986;-79
2022/04/16 08:09:53;;;;;;;12.90;12.10;;;12.70;99.90;;;;;;6211840;23;20734;-75
2022/04/16 08:12:21;;;;;;;12.47;11.83;;;12.90;99.90;;;;;;6211551;23;20429;-77
2022/04/16 08:14:48;;;;;;;14.20;13.30;;;12.90;99.90;;;;;;6211626;23;20502;-76
2022/04/16 08:17:15;;;;;;;13.93;13.07;;;12.60;99.90;;;;;;6212070;23;20405;-76
2022/04/16 08:19:41;;;;;;;13.27;12.33;;;12.60;99.90;;;;;;6209447;23;20417;-76
2022/04/16 08:22:11;;;;;;;12.67;11.97;;;12.70;99.90;;;;;;6211653;23;20417;-76
2022/04/16 08:24:41;;;;;;;13.17;12.47;;;13.00;99.90;;;;;;6213159;23;20470;-77
2022/04/16 08:27:08;;;;;;;13.67;12.77;;;13.00;99.90;;;;;;6213117;23;20468;-74
2022/04/16 08:29:37;;;;;;;14.07;13.10;;;12.90;99.90;;;;;;6213499;23;20415;-76
2022/04/16 08:32:06;;;;;;;14.17;13.27;;;12.70;99.90;;;;;;6212917;23;20417;-77
2022/04/16 08:34:33;;;;;;;14.00;13.10;;;12.60;99.90;;;;;;6213540;23;20413;-76
2022/04/16 08:37:00;;;;;;;14.13;13.23;;;12.70;99.90;;;;;;6213094;23;20412;-77
2022/04/16 08:39:29;;;;;;;14.70;13.80;;;12.70;99.90;;;;;;6213746;23;20484;-76
2022/04/16 08:41:57;;;;;;;14.50;13.40;;;12.70;99.90;;;;;;6213201;23;20405;-77
2022/04/16 08:44:25;;;;;;;13.90;13.10;;;12.90;99.90;;;;;;6213281;23;20408;-77
2022/04/16 08:46:55;;;;;;;14.97;13.83;;;12.90;99.90;;;;;;6212231;23;20776;-76
2022/04/16 08:49:22;;;;;;;14.67;13.67;;;13.00;99.90;;;;;;6213400;23;20682;-76
2022/04/16 08:51:49;;;;;;;13.80;13.00;;;13.20;99.90;;;;;;6213326;23;20416;-76
2022/04/16 08:54:16;;;;;;;13.63;12.60;;;13.00;99.90;;;;;;6213794;23;20416;-76
2022/04/16 08:56:42;;;;;;;14.53;13.43;;;12.70;99.90;;;;;;6213717;23;20401;-78
2022/04/16 08:59:09;;;;;;;13.80;12.90;;;12.70;99.90;;;;;;6213312;23;20408;-78
2022/04/16 09:01:36;;;;;;;15.17;13.97;;;12.70;99.90;;;;;;6213371;23;20409;-78
2022/04/16 09:04:04;;;;;;;12.87;12.03;;;12.70;99.90;;;;;;6213575;23;20444;-77
2022/04/16 09:06:31;;;;;;;13.90;13.00;;;12.60;99.90;;;;;;6213421;23;20794;-78
2022/04/16 09:09:08;;;;;;;14.03;13.03;;;12.70;99.90;;;;;;6213363;23;20413;-77
2022/04/16 09:11:35;;;;;;;14.77;13.77;;;12.50;99.90;;;;;;6212731;23;20428;-77
2022/04/16 09:14:01;;;;;;;15.60;14.60;;;12.30;99.90;;;;;;6213017;23;20439;-77
2022/04/16 09:16:28;;;;;;;15.10;14.00;;;12.40;99.90;;;;;;6213380;23;20413;-77
2022/04/16 09:18:56;;;;;;;15.57;14.47;;;12.30;99.90;;;;;;6213133;23;20419;-78
2022/04/16 09:21:27;;;;;;;15.20;14.13;;;12.30;99.90;;;;;;6213078;23;20416;-78
2022/04/16 09:23:59;;;;;;;15.60;14.50;;;12.20;99.90;;;;;;6213126;23;20925;-77
2022/04/16 09:26:27;;;;;;;16.67;15.03;;;12.10;99.90;;;;;;6213050;23;20716;-77
2022/04/16 09:28:54;;;;;;;14.20;13.30;;;12.20;99.90;;;;;;6212546;23;20618;-77
2022/04/16 09:31:28;;;;;;;15.73;14.23;;;12.20;99.90;;;;;;6212864;23;20419;-78
2022/04/16 09:33:55;;;;;;;14.53;13.53;;;12.40;99.90;;;;;;6212628;23;20397;-77
2022/04/16 09:36:27;;;;;;;15.13;14.03;;;12.50;99.90;;;;;;6212924;23;20416;-77
2022/04/16 09:39:05;;;;;;;15.37;14.07;;;12.60;99.90;;;;;;6212683;23;20405;-77
2022/04/16 09:41:33;;;;;;;15.23;14.10;;;12.50;99.90;;;;;;6213063;23;20415;-77
2022/04/16 09:44:00;;;;;;;15.17;14.10;;;12.50;99.90;;;;;;6212918;23;20443;-78
2022/04/16 09:46:28;;;;;;;16.23;15.10;;;12.60;99.90;;;;;;6212962;23;20419;-77
2022/04/16 09:49:03;;;;;;;16.47;15.40;;;12.60;99.90;;;;;;6212543;23;20955;-78
2022/04/16 09:51:36;;;;;;;14.93;13.83;;;12.70;99.90;;;;;;6213313;23;20397;-78
2022/04/16 09:54:05;;;;;;;15.97;14.87;;;12.70;99.90;;;;;;6212651;23;20412;-78
2022/04/16 09:56:33;;;;;;;15.47;14.27;;;12.80;99.90;;;;;;6213100;23;20408;-78
2022/04/16 09:59:02;;;;;;;14.67;13.67;;;13.10;99.90;;;;;;6213067;23;20463;-78
2022/04/16 10:01:29;;;;;;;15.53;14.37;;;13.50;99.90;;;;;;6213289;23;20409;-78
2022/04/16 10:03:57;;;;;;;16.40;15.33;;;13.70;99.90;;;;;;6212661;23;20768;-78
2022/04/16 10:06:24;;;;;;;16.47;15.27;;;14.20;99.90;;;;;;6212605;23;20408;-75
2022/04/16 10:08:52;;;;;;;14.77;13.87;;;15.10;99.80;;;;;;6212156;23;20452;-77
2022/04/16 10:11:21;;;;;;;17.17;16.07;;;15.70;98.20;;;;;;6211679;23;20440;-75
2022/04/16 10:13:56;;;;;;;15.50;14.50;;;15.80;97.40;;;;;;6212141;23;20440;-75
2022/04/16 10:16:33;;;;;;;16.23;15.23;;;15.80;96.40;;;;;;6212503;23;20432;-77
2022/04/16 10:18:59;;;;;;;15.53;14.47;;;15.50;96.80;;;;;;6212978;23;20395;-76
2022/04/16 10:21:33;;;;;;;15.60;14.63;;;15.60;97.00;;;;;;6212527;23;20416;-76
2022/04/16 10:24:02;;;;;;;14.17;13.37;;;15.10;96.90;;;;;;6212779;23;20389;-75
2022/04/16 10:26:38;;;;;;;15.10;14.00;;;14.60;97.50;;;;;;6212701;23;20432;-77
2022/04/16 10:29:05;;;;;;;14.90;13.90;;;14.50;97.90;;;;;;6212279;23;20437;-77
2022/04/16 10:31:36;;;;;;;13.97;13.07;;;14.20;98.20;;;;;;6212810;23;20404;-78
2022/04/16 10:34:09;;;;;;;16.10;15.00;;;14.00;98.30;;;;;;6212206;23;20868;-77
2022/04/16 10:36:38;;;;;;;14.47;13.57;;;13.90;98.40;;;;;;6212448;23;20425;-78
2022/04/16 10:39:15;;;;;;;14.60;13.70;;;13.90;98.70;;;;;;6212374;23;20755;-77
2022/04/16 10:41:54;;;;;;;14.40;13.50;;;13.90;98.00;;;;;;6212201;23;20380;-77
2022/04/16 10:44:20;;;;;;;15.73;14.63;;;13.90;98.10;;;;;;6210429;23;20915;-78
2022/04/16 10:46:48;;;;;;;15.67;14.73;;;14.10;98.00;;;;;;6212374;23;20730;-78
2022/04/16 10:49:16;;;;;;;15.70;14.70;;;14.20;98.00;;;;;;6212162;23;20437;-79
2022/04/16 10:51:43;;;;;;;14.77;13.77;;;14.20;97.80;;;;;;6212355;23;20463;-75
2022/04/16 10:54:10;;;;;;;16.47;15.30;;;14.50;97.70;;;;;;6211740;23;20922;-78
2022/04/16 10:56:40;;;;;;;15.40;14.40;;;14.90;97.20;;;;;;6212150;23;20465;-77
2022/04/16 10:59:08;;;;;;;14.47;13.57;;;14.90;96.50;;;;;;6211801;23;20401;-78
2022/04/16 11:01:35;;;;;;;15.03;14.03;;;14.80;95.60;;;;;;6211855;23;20416;-77
2022/04/16 11:04:12;;;;;;;14.10;13.10;;;14.50;96.60;;;;;;6211708;23;20892;-78
2022/04/16 11:06:44;;;;;;;14.73;13.93;;;14.60;96.10;;;;;;6211980;23;20404;-79
2022/04/16 11:09:13;;;;;;;15.77;14.63;;;14.60;95.70;;;;;;6212545;23;20429;-78
2022/04/16 11:11:43;;;;;;;15.43;14.43;;;15.00;95.30;;;;;;6211189;23;20435;-78
2022/04/16 11:14:10;;;;;;;13.33;12.53;;;15.40;94.60;;;;;;6211666;23;20753;-79
2022/04/16 11:16:44;;;;;;;15.37;14.27;;;15.60;93.80;;;;;;6212112;23;20765;-78
2022/04/16 11:19:13;;;;;;;14.70;13.80;;;15.80;93.30;;;;;;6211680;23;20927;-78
2022/04/16 11:21:40;;;;;;;14.23;13.37;;;15.80;92.30;;;;;;6211857;23;20437;-78
2022/04/16 11:24:07;;;;;;;15.10;13.83;;;15.60;92.20;;;;;;6211834;23;20408;-78
2022/04/16 11:34:52;;;;;;;12.93;12.23;;;14.70;93.40;;;;;;6211752;23;20460;-76
2022/04/16 11:37:19;;;;;;;13.10;12.40;;;14.60;93.10;;;;;;6211886;23;20443;-76
2022/04/16 11:39:48;;;;;;;13.90;13.00;;;15.00;92.60;;;;;;6211746;23;20903;-76
2022/04/16 11:42:15;;;;;;;14.77;13.80;;;15.10;93.00;;;;;;6212360;23;20500;-77
2022/04/16 11:44:45;;;;;;;13.73;13.03;;;15.40;92.30;;;;;;6211887;23;20412;-78
2022/04/16 11:47:14;;;;;;;13.83;13.10;;;15.80;92.10;;;;;;6211713;23;20413;-78
2022/04/16 11:49:42;;;;;;;13.90;13.10;;;15.60;91.50;;;;;;6211541;23;20413;-79
2022/04/16 11:52:10;;;;;;;13.27;12.47;;;15.60;91.20;;;;;;6212072;23;20431;-79
2022/04/16 11:54:37;;;;;;;14.50;13.63;;;16.00;90.90;;;;;;6212054;23;21095;-79
2022/04/16 11:57:04;;;;;;;13.53;12.80;;;16.60;88.50;;;;;;6211834;23;20416;-79
2022/04/16 11:59:31;;;;;;;14.30;13.33;;;17.30;85.70;;;;;;6214097;23;20412;-79
2022/04/16 12:02:07;;;;;;;14.73;13.93;;;17.10;85.10;;;;;;6214039;23;20419;-78
2022/04/16 12:04:36;;;;;;;13.13;12.43;;;16.90;86.30;;;;;;6213546;23;20400;-78
2022/04/16 12:07:03;;;;;;;13.57;12.80;;;16.70;86.60;;;;;;6213530;23;20752;-76
2022/04/16 12:09:33;;;;;;;14.00;13.20;;;16.70;85.20;;;;;;6213962;23;20448;-78
2022/04/16 12:12:01;;;;;;;13.83;12.97;;;16.60;84.80;;;;;;6213690;23;20443;-78
2022/04/16 12:14:27;;;;;;;14.27;13.37;;;16.60;85.70;;;;;;6213694;23;20487;-79
2022/04/16 12:16:59;;;;;;;13.80;13.00;;;17.10;83.40;;;;;;6213683;23;20417;-79
2022/04/16 12:19:31;;;;;;;13.07;12.37;;;17.20;81.60;;;;;;6213663;23;20409;-77
2022/04/16 12:21:58;;;;;;;12.20;11.50;;;16.80;80.70;;;;;;6214336;23;20424;-77
2022/04/16 12:24:28;;;;;;;13.63;12.93;;;16.60;81.60;;;;;;6213643;23;20436;-78
2022/04/16 12:26:55;;;;;;;13.10;12.40;;;16.60;81.90;;;;;;6213471;23;20508;-76
2022/04/16 12:29:27;;;;;;;13.70;12.90;;;16.10;82.10;;;;;;6213073;23;20449;-75
2022/04/16 12:31:58;;;;;;;14.10;13.20;;;15.60;83.20;;;;;;6213654;23;20389;-77
2022/04/16 12:34:25;;;;;;;13.23;12.43;;;15.40;84.90;;;;;;6213634;23;20475;-76
2022/04/16 12:36:54;;;;;;;14.47;13.50;;;15.70;85.20;;;;;;6213553;23;20818;-76
2022/04/16 12:39:23;;;;;;;13.87;13.00;;;16.80;81.70;;;;;;6213534;23;20412;-77
2022/04/16 12:41:51;;;;;;;13.40;12.70;;;17.10;79.00;;;;;;6212741;23;20503;-77
2022/04/16 12:44:18;;;;;;;13.97;13.23;;;17.70;78.10;;;;;;6213114;23;20963;-77
2022/04/16 12:46:45;;;;;;;13.87;13.10;;;17.70;76.80;;;;;;6213838;23;20448;-76
2022/04/16 12:49:11;;;;;;;13.80;12.90;;;17.40;75.50;;;;;;6213758;23;20440;-77
2022/04/16 12:51:38;;;;;;;15.00;13.87;;;17.40;76.10;;;;;;6213173;23;20405;-77
2022/04/16 12:54:06;;;;;;;14.27;13.33;;;17.80;74.60;;;;;;6213235;23;20412;-76
2022/04/16 12:56:33;;;;;;;15.60;14.47;;;18.30;73.60;;;;;;6213388;23;20408;-77
2022/04/16 12:59:00;;;;;;;15.73;14.83;;;18.30;72.00;;;;;;6213824;23;20504;-77
2022/04/16 13:01:26;;;;;;;14.33;13.53;;;18.80;71.80;;;;;;6213322;23;20412;-77
2022/04/16 13:03:53;;;;;;;14.40;13.23;;;18.50;70.90;;;;;;6212992;23;20408;-77
2022/04/16 13:06:20;;;;;;;14.20;13.00;;;18.10;72.10;;;;;;6213225;23;20419;-77
2022/04/16 13:08:47;;;;;;;12.80;12.07;;;18.20;72.50;;;;;;6213101;23;20441;-76
2022/04/16 13:11:17;;;;;;;13.30;12.60;;;18.30;70.60;;;;;;6212920;23;20468;-77
2022/04/16 13:13:44;;;;;;;14.30;13.40;;;19.20;70.00;;;;;;6212809;23;20441;-77
2022/04/16 13:16:10;;;;;;;14.23;13.40;;;18.80;67.20;;;;;;6213189;23;20415;-78
2022/04/16 13:18:38;;;;;;;13.37;12.70;;;18.20;68.60;;;;;;6212997;23;20473;-78
2022/04/16 13:21:06;;;;;;;14.30;13.50;;;18.40;69.10;;;;;;6213061;23;20787;-78
2022/04/16 13:23:33;;;;;;;13.57;12.77;;;19.00;67.40;;;;;;6213159;23;20413;-77
2022/04/16 13:26:00;;;;;;;13.93;13.23;;;19.00;68.20;;;;;;6213379;23;20706;-77
2022/04/16 13:28:28;;;;;;;14.33;13.63;;;18.70;65.10;;;;;;6212823;23;20452;-78
2022/04/16 13:30:55;;;;;;;13.80;13.00;;;18.10;65.70;;;;;;6212956;23;20409;-78
2022/04/16 13:33:22;;;;;;;13.47;12.67;;;17.30;66.40;;;;;;6212419;23;20409;-78
2022/04/16 13:35:49;;;;;;;14.10;13.30;;;17.30;70.30;;;;;;6212929;23;20417;-78
2022/04/16 13:38:16;;;;;;;13.60;12.87;;;17.90;68.50;;;;;;6213225;23;20444;-78
2022/04/16 13:43:29;;;;;;;13.63;12.93;;;18.20;67.70;;;;;;6213199;23;20411;-78
2022/04/16 13:45:56;;;;;;;14.00;13.30;;;18.20;67.60;;;;;;6212820;23;20473;-78
2022/04/16 13:48:25;;;;;;;13.43;12.73;;;18.10;67.40;;;;;;6212783;23;20613;-78
2022/04/16 13:50:54;;;;;;;14.00;13.27;;;18.70;68.00;;;;;;6212588;23;20943;-78
2022/04/16 13:53:23;;;;;;;13.67;12.87;;;19.60;65.40;;;;;;6212982;23;20647;-78
2022/04/16 13:55:50;;;;;;;13.53;12.83;;;20.00;61.50;;;;;;6212597;23;20420;-78
2022/04/16 13:58:17;;;;;;;14.00;13.20;;;19.20;62.50;;;;;;6212888;23;20428;-81
2022/04/16 14:00:45;;;;;;;14.03;13.30;;;18.80;61.00;;;;;;6213105;23;20416;-77
2022/04/16 14:03:12;;;;;;;13.60;12.80;;;18.90;59.90;;;;;;6213553;23;20413;-84
2022/04/16 14:05:44;;;;;;;14.10;13.30;;;18.70;61.80;;;;;;6212477;23;20447;-85
2022/04/16 14:08:12;;;;;;;13.90;13.13;;;18.60;60.10;;;;;;6213176;23;20801;-83
2022/04/16 14:10:40;;;;;;;13.13;12.50;;;19.10;60.50;;;;;;6212775;23;20504;-86
2022/04/16 14:13:06;;;;;;;13.93;12.97;;;19.10;60.20;;;;;;6213018;23;20482;-83
2022/04/16 14:15:33;;;;;;;13.70;13.00;;;18.80;61.40;;;;;;6212762;23;20891;-86
2022/04/16 14:18:01;;;;;;;13.70;13.00;;;18.70;60.50;;;;;;6214374;23;20412;-87
2022/04/16 14:20:28;;;;;;;13.30;12.67;;;19.00;60.20;;;;;;6220285;23;20415;-83
2022/04/16 14:22:56;;;;;;;13.13;12.43;;;19.10;60.00;;;;;;6225158;23;20409;-86
2022/04/16 14:25:23;;;;;;;12.87;12.17;;;18.40;61.40;;;;;;6229434;23;20417;-87
2022/04/16 14:27:50;;;;;;;13.60;12.90;;;18.30;61.60;;;;;;6224164;23;20462;-83
2022/04/16 14:30:18;;;;;;;13.13;12.43;;;17.80;62.10;;;;;;6226233;23;20445;-88
2022/04/16 14:32:45;;;;;;;12.43;11.83;;;17.30;64.10;;;;;;6227355;23;20413;-83
2022/04/16 14:35:13;;;;;;;12.90;12.30;;;16.80;64.20;;;;;;6221631;23;20409;-83
2022/04/16 14:37:40;;;;;;;12.53;11.83;;;16.30;64.90;;;;;;6224877;23;20412;-86
2022/04/16 14:40:08;;;;;;;12.53;11.87;;;16.00;67.30;;;;;;6223437;23;20881;-85
2022/04/16 14:42:35;;;;;;;12.37;11.67;;;15.70;66.70;;;;;;6228287;23;20409;-86
2022/04/16 14:45:01;;;;;;;13.23;12.53;;;15.30;66.90;;;;;;6213955;23;20408;-86
2022/04/16 14:47:28;;;;;;;12.50;11.90;;;15.10;68.70;;;;;;6212253;23;20934;-85
2022/04/16 14:49:55;;;;;;;11.40;10.90;;;15.00;68.60;;;;;;6212341;23;20449;-85
2022/04/16 14:52:25;;;;;;;11.17;10.57;;;15.00;70.40;;;;;;6212588;23;20686;-84
2022/04/16 14:54:52;;;;;;;12.50;11.90;;;15.00;71.40;;;;;;6211959;23;20413;-84
2022/04/16 14:57:19;;;;;;;12.00;11.40;;;15.10;72.40;;;;;;6212303;23;20892;-83
2022/04/16 14:59:45;;;;;;;11.83;11.23;;;15.00;70.30;;;;;;6212374;23;20890;-83
2022/04/16 15:02:12;;;;;;;13.53;12.63;;;14.80;70.10;;;;;;6212265;23;20742;-83
2022/04/16 15:04:39;;;;;;;12.67;11.77;;;14.60;71.30;;;;;;6212297;23;20420;-83
2022/04/16 15:07:05;;;;;;;13.07;12.27;;;14.70;71.60;;;;;;6212146;23;20416;-83
2022/04/16 15:09:33;;;;;;;12.90;12.30;;;14.70;70.80;;;;;;6211704;23;20440;-84
2022/04/16 15:12:04;;;;;;;11.97;11.37;;;14.70;71.90;;;;;;6212163;23;20487;-85
2022/04/16 15:14:30;;;;;;;10.47;9.97;;;14.70;70.10;;;;;;6212127;23;20441;-85
2022/04/16 15:16:57;;;;;;;11.67;10.97;;;14.70;71.80;;;;;;6212176;23;20417;-85
2022/04/16 15:19:24;;;;;;;11.50;10.90;;;14.70;69.10;;;;;;6211876;23;20962;-83
2022/04/16 15:21:51;;;;;;;11.40;10.90;;;14.70;68.50;;;;;;6211906;23;20431;-84
2022/04/16 15:24:18;;;;;;;10.97;10.37;;;14.80;66.10;;;;;;6212222;23;20729;-85
2022/04/16 15:26:46;;;;;;;12.13;11.43;;;14.90;66.00;;;;;;6212057;23;20736;-85
2022/04/16 15:29:13;;;;;;;11.37;10.77;;;15.00;66.60;;;;;;6211820;23;20441;-85
2022/04/16 15:31:41;;;;;;;11.43;10.93;;;15.00;63.60;;;;;;6211625;23;20448;-83
2022/04/16 15:34:09;;;;;;;11.20;10.40;;;14.90;62.90;;;;;;6211908;23;20832;-83
2022/04/16 15:36:36;;;;;;;11.97;11.10;;;14.90;64.30;;;;;;6211542;23;20413;-83
2022/04/16 15:39:04;;;;;;;11.80;11.10;;;14.90;63.90;;;;;;6211715;23;20946;-84
2022/04/16 15:41:31;;;;;;;11.30;10.70;;;14.70;62.50;;;;;;6211992;23;20404;-83
2022/04/16 15:44:03;;;;;;;11.30;10.80;;;14.70;62.20;;;;;;6211763;23;20479;-85
2022/04/16 15:46:30;;;;;;;11.30;10.80;;;14.70;60.00;;;;;;6210076;23;20880;-84
2022/04/16 15:48:56;;;;;;;12.27;11.67;;;14.80;61.00;;;;;;6212238;23;20771;-85
2022/04/16 15:51:24;;;;;;;11.13;10.53;;;14.80;60.10;;;;;;6211680;23;20735;-84
2022/04/16 15:53:51;;;;;;;11.73;11.10;;;14.70;59.30;;;;;;6211565;23;20408;-84
2022/04/16 15:56:18;;;;;;;12.30;11.50;;;14.70;59.10;;;;;;6211699;23;20729;-84
2022/04/16 15:58:44;;;;;;;11.53;10.93;;;14.70;59.80;;;;;;6211426;23;20453;-84
2022/04/16 16:01:13;;;;;;;11.10;10.60;;;14.80;59.70;;;;;;6211646;23;20417;-84
2022/04/16 16:03:39;;;;;;;12.10;11.50;;;14.70;59.10;;;;;;6211723;23;20408;-84
2022/04/16 16:06:06;;;;;;;12.13;11.47;;;14.70;59.80;;;;;;6211760;23;20416;-85
2022/04/16 16:08:33;;;;;;;13.40;12.60;;;14.70;60.80;;;;;;6211727;23;20408;-85
2022/04/16 16:11:00;;;;;;;11.90;11.10;;;14.70;59.60;;;;;;6211277;23;20405;-84
2022/04/16 16:13:28;;;;;;;12.40;11.70;;;14.60;59.90;;;;;;6211438;23;20499;-85
2022/04/16 16:15:55;;;;;;;11.80;11.30;;;14.60;59.00;;;;;;6211680;23;20488;-85
2022/04/16 16:18:23;;;;;;;12.23;11.53;;;14.60;58.80;;;;;;6211974;23;20791;-86
2022/04/16 16:20:50;;;;;;;12.10;11.50;;;14.70;59.90;;;;;;6212025;23;20400;-86
2022/04/16 16:23:17;;;;;;;12.10;11.37;;;14.70;58.80;;;;;;6211938;23;20405;-85
2022/04/16 16:25:44;;;;;;;11.77;11.20;;;14.70;59.00;;;;;;6211984;23;20412;-84
2022/04/16 16:28:11;;;;;;;11.87;11.30;;;14.70;57.40;;;;;;6211501;23;20405;-84
2022/04/16 16:30:40;;;;;;;11.80;11.30;;;14.60;56.40;;;;;;6211105;23;20705;-85
2022/04/16 16:33:09;;;;;;;11.63;11.13;;;14.50;56.60;;;;;;6211118;23;20452;-79
2022/04/16 16:35:37;;;;;;;10.97;10.47;;;14.50;55.40;;;;;;6211287;23;20471;-78
2022/04/16 16:38:04;;;;;;;12.07;11.47;;;14.50;54.40;;;;;;6210611;23;20417;-79
2022/04/16 16:40:31;;;;;;;11.17;10.67;;;14.50;54.50;;;;;;6211337;23;20412;-79
2022/04/16 16:42:58;;;;;;;11.10;10.50;;;14.50;53.90;;;;;;6210911;23;20904;-78
2022/04/16 16:45:25;;;;;;;11.70;11.20;;;14.40;53.60;;;;;;6212893;23;20408;-78
2022/04/16 16:47:52;;;;;;;12.37;11.77;;;14.40;53.60;;;;;;6212669;23;20959;-78
2022/04/16 16:50:19;;;;;;;11.70;10.80;;;14.40;53.00;;;;;;6212775;23;20451;-78
2022/04/16 16:52:48;;;;;;;10.63;10.13;;;14.30;51.70;;;;;;6214054;23;20441;-77
2022/04/16 16:55:16;;;;;;;10.60;10.10;;;14.30;51.40;;;;;;6213815;23;20508;-77